Airport ICAO


21:16 UTC

14°C

Mist


An affordable passengers' Moving Map for your aircraft. Made for the iPad and the iPhone
More information here

LFTH Le Palyvestre


Hyeres FRANCE   IFR CAT I


METAR LFTH 202100Z AUTO 00000KT 5000 1000 R05/P3600 BR NSC 14/13 Q1020 TEMPO 0500 FG VV/// 0h16min

TAF LFTH 202000Z 2021/2121 VRB05KT 5000 NSC TEMPO 2021/2106 2500 BR BKN019 PROB30 TEMPO 2021/2106 0500 FG VV/// BECMG 2109/2112 22010KT CAVOK BECMG 2115/2118 26012KT 1h16min





NOTAMS

OPEN